sensor_id;sensor_type;location;lat;lon;timestamp;P1;durP1;ratioP1;P2;durP2;ratioP2
68050;SDS011;54839;51.364;7.246;2024-03-06T00:00:54;32.43;;;23.70;;
68050;SDS011;54839;51.364;7.246;2024-03-06T00:03:19;28.57;;;21.50;;
68050;SDS011;54839;51.364;7.246;2024-03-06T00:05:45;28.30;;;22.67;;
68050;SDS011;54839;51.364;7.246;2024-03-06T00:08:10;36.27;;;22.47;;
68050;SDS011;54839;51.364;7.246;2024-03-06T00:10:36;35.40;;;23.67;;
68050;SDS011;54839;51.364;7.246;2024-03-06T00:13:01;29.83;;;22.93;;
68050;SDS011;54839;51.364;7.246;2024-03-06T00:15:27;31.10;;;23.30;;
68050;SDS011;54839;51.364;7.246;2024-03-06T00:17:53;32.07;;;23.57;;
68050;SDS011;54839;51.364;7.246;2024-03-06T00:20:18;26.03;;;20.70;;
68050;SDS011;54839;51.364;7.246;2024-03-06T00:22:44;29.67;;;21.40;;
68050;SDS011;54839;51.364;7.246;2024-03-06T00:25:10;29.10;;;20.60;;
68050;SDS011;54839;51.364;7.246;2024-03-06T00:27:36;29.93;;;22.17;;
68050;SDS011;54839;51.364;7.246;2024-03-06T00:30:02;30.80;;;23.00;;
68050;SDS011;54839;51.364;7.246;2024-03-06T00:32:28;32.37;;;21.67;;
68050;SDS011;54839;51.364;7.246;2024-03-06T00:34:53;29.23;;;21.13;;
68050;SDS011;54839;51.364;7.246;2024-03-06T00:37:19;32.03;;;22.97;;
68050;SDS011;54839;51.364;7.246;2024-03-06T00:39:45;29.23;;;21.50;;
68050;SDS011;54839;51.364;7.246;2024-03-06T00:42:10;33.30;;;24.97;;
68050;SDS011;54839;51.364;7.246;2024-03-06T00:44:38;31.70;;;21.40;;
68050;SDS011;54839;51.364;7.246;2024-03-06T00:47:04;33.17;;;23.37;;
68050;SDS011;54839;51.364;7.246;2024-03-06T00:49:30;29.40;;;22.90;;
68050;SDS011;54839;51.364;7.246;2024-03-06T00:51:56;33.70;;;23.83;;
68050;SDS011;54839;51.364;7.246;2024-03-06T00:54:21;30.80;;;22.90;;
68050;SDS011;54839;51.364;7.246;2024-03-06T00:56:47;33.20;;;23.50;;
68050;SDS011;54839;51.364;7.246;2024-03-06T00:59:12;28.73;;;21.80;;
68050;SDS011;54839;51.364;7.246;2024-03-06T01:01:38;31.67;;;21.90;;
68050;SDS011;54839;51.364;7.246;2024-03-06T01:04:04;30.33;;;21.20;;
68050;SDS011;54839;51.364;7.246;2024-03-06T01:06:29;27.77;;;21.93;;
68050;SDS011;54839;51.364;7.246;2024-03-06T01:08:55;29.63;;;21.30;;
68050;SDS011;54839;51.364;7.246;2024-03-06T01:11:22;33.80;;;24.00;;
68050;SDS011;54839;51.364;7.246;2024-03-06T01:13:47;31.87;;;22.33;;
68050;SDS011;54839;51.364;7.246;2024-03-06T01:16:13;31.17;;;21.57;;
68050;SDS011;54839;51.364;7.246;2024-03-06T01:18:39;33.27;;;22.20;;
68050;SDS011;54839;51.364;7.246;2024-03-06T01:21:05;28.17;;;22.47;;
68050;SDS011;54839;51.364;7.246;2024-03-06T01:23:30;32.50;;;22.40;;
68050;SDS011;54839;51.364;7.246;2024-03-06T01:25:56;28.07;;;19.63;;
68050;SDS011;54839;51.364;7.246;2024-03-06T01:28:22;32.13;;;22.27;;
68050;SDS011;54839;51.364;7.246;2024-03-06T01:30:47;31.17;;;23.90;;
68050;SDS011;54839;51.364;7.246;2024-03-06T01:33:13;41.17;;;31.27;;
68050;SDS011;54839;51.364;7.246;2024-03-06T01:35:39;37.20;;;28.17;;
68050;SDS011;54839;51.364;7.246;2024-03-06T01:38:04;32.90;;;23.47;;
68050;SDS011;54839;51.364;7.246;2024-03-06T01:40:30;31.17;;;22.80;;
68050;SDS011;54839;51.364;7.246;2024-03-06T01:42:56;30.97;;;23.03;;
68050;SDS011;54839;51.364;7.246;2024-03-06T01:45:22;30.57;;;21.80;;
68050;SDS011;54839;51.364;7.246;2024-03-06T01:47:47;30.97;;;22.47;;
68050;SDS011;54839;51.364;7.246;2024-03-06T01:50:13;31.30;;;21.23;;
68050;SDS011;54839;51.364;7.246;2024-03-06T01:52:39;30.70;;;21.50;;
68050;SDS011;54839;51.364;7.246;2024-03-06T01:55:07;32.07;;;22.57;;
68050;SDS011;54839;51.364;7.246;2024-03-06T01:57:33;33.90;;;21.50;;
68050;SDS011;54839;51.364;7.246;2024-03-06T01:59:59;29.87;;;21.80;;
68050;SDS011;54839;51.364;7.246;2024-03-06T02:02:26;25.63;;;20.30;;
68050;SDS011;54839;51.364;7.246;2024-03-06T02:04:53;33.37;;;23.17;;
68050;SDS011;54839;51.364;7.246;2024-03-06T02:07:19;34.03;;;24.23;;
68050;SDS011;54839;51.364;7.246;2024-03-06T02:09:46;34.63;;;24.40;;
68050;SDS011;54839;51.364;7.246;2024-03-06T02:12:11;27.53;;;20.67;;
68050;SDS011;54839;51.364;7.246;2024-03-06T02:14:38;32.70;;;23.50;;
68050;SDS011;54839;51.364;7.246;2024-03-06T02:17:04;29.57;;;21.03;;
68050;SDS011;54839;51.364;7.246;2024-03-06T02:19:39;29.83;;;22.13;;
68050;SDS011;54839;51.364;7.246;2024-03-06T02:22:06;33.60;;;23.93;;
68050;SDS011;54839;51.364;7.246;2024-03-06T02:24:35;29.30;;;22.10;;
68050;SDS011;54839;51.364;7.246;2024-03-06T02:27:02;28.47;;;20.47;;
68050;SDS011;54839;51.364;7.246;2024-03-06T02:29:30;33.10;;;23.00;;
68050;SDS011;54839;51.364;7.246;2024-03-06T02:31:59;34.03;;;22.43;;
68050;SDS011;54839;51.364;7.246;2024-03-06T02:34:27;36.60;;;25.00;;
68050;SDS011;54839;51.364;7.246;2024-03-06T02:36:53;32.27;;;23.50;;
68050;SDS011;54839;51.364;7.246;2024-03-06T02:39:19;26.90;;;20.30;;
68050;SDS011;54839;51.364;7.246;2024-03-06T02:41:46;25.83;;;19.10;;
68050;SDS011;54839;51.364;7.246;2024-03-06T02:44:12;28.27;;;22.07;;
68050;SDS011;54839;51.364;7.246;2024-03-06T02:46:38;30.07;;;20.90;;
68050;SDS011;54839;51.364;7.246;2024-03-06T02:49:04;32.60;;;22.90;;
68050;SDS011;54839;51.364;7.246;2024-03-06T02:51:31;32.10;;;23.00;;
68050;SDS011;54839;51.364;7.246;2024-03-06T02:53:56;29.30;;;21.40;;
68050;SDS011;54839;51.364;7.246;2024-03-06T02:56:22;28.97;;;21.40;;
68050;SDS011;54839;51.364;7.246;2024-03-06T02:58:48;30.50;;;23.67;;
68050;SDS011;54839;51.364;7.246;2024-03-06T03:01:13;34.33;;;24.53;;
68050;SDS011;54839;51.364;7.246;2024-03-06T03:03:42;33.20;;;23.23;;
68050;SDS011;54839;51.364;7.246;2024-03-06T03:06:09;33.33;;;23.07;;
68050;SDS011;54839;51.364;7.246;2024-03-06T03:08:36;33.50;;;22.47;;
68050;SDS011;54839;51.364;7.246;2024-03-06T03:11:02;35.57;;;24.87;;
68050;SDS011;54839;51.364;7.246;2024-03-06T03:13:28;31.33;;;23.93;;
68050;SDS011;54839;51.364;7.246;2024-03-06T03:15:55;30.40;;;20.97;;
68050;SDS011;54839;51.364;7.246;2024-03-06T03:18:20;36.73;;;24.93;;
68050;SDS011;54839;51.364;7.246;2024-03-06T03:20:46;31.50;;;24.10;;
68050;SDS011;54839;51.364;7.246;2024-03-06T03:23:12;34.30;;;24.10;;
68050;SDS011;54839;51.364;7.246;2024-03-06T03:25:40;29.63;;;20.90;;
68050;SDS011;54839;51.364;7.246;2024-03-06T03:28:08;31.70;;;24.40;;
68050;SDS011;54839;51.364;7.246;2024-03-06T03:30:35;37.40;;;24.60;;
68050;SDS011;54839;51.364;7.246;2024-03-06T03:33:00;36.83;;;24.20;;
68050;SDS011;54839;51.364;7.246;2024-03-06T03:35:26;38.03;;;24.47;;
68050;SDS011;54839;51.364;7.246;2024-03-06T03:37:51;37.83;;;25.20;;
68050;SDS011;54839;51.364;7.246;2024-03-06T03:40:17;33.97;;;23.53;;
68050;SDS011;54839;51.364;7.246;2024-03-06T03:42:44;33.97;;;23.13;;
68050;SDS011;54839;51.364;7.246;2024-03-06T03:45:10;31.50;;;22.60;;
68050;SDS011;54839;51.364;7.246;2024-03-06T03:47:35;33.47;;;24.10;;
68050;SDS011;54839;51.364;7.246;2024-03-06T03:50:02;34.37;;;25.60;;
68050;SDS011;54839;51.364;7.246;2024-03-06T03:52:28;32.33;;;23.80;;
68050;SDS011;54839;51.364;7.246;2024-03-06T03:54:54;31.63;;;22.80;;
68050;SDS011;54839;51.364;7.246;2024-03-06T03:57:20;31.43;;;23.47;;
68050;SDS011;54839;51.364;7.246;2024-03-06T03:59:46;34.10;;;24.00;;
68050;SDS011;54839;51.364;7.246;2024-03-06T04:02:11;35.07;;;24.37;;
68050;SDS011;54839;51.364;7.246;2024-03-06T04:04:37;32.43;;;25.50;;
68050;SDS011;54839;51.364;7.246;2024-03-06T04:07:03;34.10;;;23.53;;
68050;SDS011;54839;51.364;7.246;2024-03-06T04:09:31;29.73;;;22.20;;
68050;SDS011;54839;51.364;7.246;2024-03-06T04:12:00;35.13;;;26.30;;
68050;SDS011;54839;51.364;7.246;2024-03-06T04:14:26;37.10;;;24.07;;
68050;SDS011;54839;51.364;7.246;2024-03-06T04:16:51;31.90;;;21.83;;
68050;SDS011;54839;51.364;7.246;2024-03-06T04:19:17;34.10;;;23.80;;
68050;SDS011;54839;51.364;7.246;2024-03-06T04:21:43;43.17;;;26.30;;
68050;SDS011;54839;51.364;7.246;2024-03-06T04:24:09;37.20;;;26.00;;
68050;SDS011;54839;51.364;7.246;2024-03-06T04:26:34;36.57;;;24.00;;
68050;SDS011;54839;51.364;7.246;2024-03-06T04:29:00;33.87;;;24.97;;
68050;SDS011;54839;51.364;7.246;2024-03-06T04:31:26;33.10;;;22.93;;
68050;SDS011;54839;51.364;7.246;2024-03-06T04:33:52;36.67;;;25.23;;
68050;SDS011;54839;51.364;7.246;2024-03-06T04:36:17;35.57;;;26.03;;
68050;SDS011;54839;51.364;7.246;2024-03-06T04:38:43;36.50;;;25.17;;
68050;SDS011;54839;51.364;7.246;2024-03-06T04:41:09;38.00;;;25.03;;
68050;SDS011;54839;51.364;7.246;2024-03-06T04:43:35;38.43;;;25.60;;
68050;SDS011;54839;51.364;7.246;2024-03-06T04:46:01;33.67;;;24.50;;
68050;SDS011;54839;51.364;7.246;2024-03-06T04:48:27;35.73;;;25.80;;
68050;SDS011;54839;51.364;7.246;2024-03-06T04:50:52;42.63;;;25.23;;
68050;SDS011;54839;51.364;7.246;2024-03-06T04:53:18;32.90;;;24.87;;
68050;SDS011;54839;51.364;7.246;2024-03-06T04:55:47;36.70;;;25.33;;
68050;SDS011;54839;51.364;7.246;2024-03-06T04:58:12;37.43;;;25.80;;
68050;SDS011;54839;51.364;7.246;2024-03-06T05:00:38;38.33;;;27.00;;
68050;SDS011;54839;51.364;7.246;2024-03-06T05:03:04;44.27;;;28.33;;
68050;SDS011;54839;51.364;7.246;2024-03-06T05:05:30;40.87;;;26.47;;
68050;SDS011;54839;51.364;7.246;2024-03-06T05:07:55;38.33;;;26.57;;
68050;SDS011;54839;51.364;7.246;2024-03-06T05:10:21;36.23;;;24.90;;
68050;SDS011;54839;51.364;7.246;2024-03-06T05:12:47;37.90;;;24.77;;
68050;SDS011;54839;51.364;7.246;2024-03-06T05:15:13;46.03;;;26.20;;
68050;SDS011;54839;51.364;7.246;2024-03-06T05:17:39;35.90;;;25.93;;
68050;SDS011;54839;51.364;7.246;2024-03-06T05:20:05;35.87;;;25.40;;
68050;SDS011;54839;51.364;7.246;2024-03-06T05:22:31;33.77;;;25.43;;
68050;SDS011;54839;51.364;7.246;2024-03-06T05:24:57;36.37;;;24.90;;
68050;SDS011;54839;51.364;7.246;2024-03-06T05:27:23;40.57;;;25.40;;
68050;SDS011;54839;51.364;7.246;2024-03-06T05:29:49;34.03;;;24.90;;
68050;SDS011;54839;51.364;7.246;2024-03-06T05:32:15;40.50;;;28.00;;
68050;SDS011;54839;51.364;7.246;2024-03-06T05:34:41;49.27;;;29.43;;
68050;SDS011;54839;51.364;7.246;2024-03-06T05:37:06;43.63;;;26.93;;
68050;SDS011;54839;51.364;7.246;2024-03-06T05:39:32;44.60;;;27.50;;
68050;SDS011;54839;51.364;7.246;2024-03-06T05:42:02;50.17;;;31.73;;
68050;SDS011;54839;51.364;7.246;2024-03-06T05:44:31;47.00;;;30.90;;
68050;SDS011;54839;51.364;7.246;2024-03-06T05:46:58;49.23;;;30.03;;
68050;SDS011;54839;51.364;7.246;2024-03-06T05:49:24;41.77;;;28.90;;
68050;SDS011;54839;51.364;7.246;2024-03-06T05:51:50;51.33;;;30.03;;
68050;SDS011;54839;51.364;7.246;2024-03-06T05:54:16;41.97;;;28.60;;
68050;SDS011;54839;51.364;7.246;2024-03-06T05:56:42;49.47;;;32.07;;
68050;SDS011;54839;51.364;7.246;2024-03-06T05:59:07;43.60;;;28.93;;
68050;SDS011;54839;51.364;7.246;2024-03-06T06:01:36;47.33;;;28.73;;
68050;SDS011;54839;51.364;7.246;2024-03-06T06:04:02;45.73;;;28.33;;
68050;SDS011;54839;51.364;7.246;2024-03-06T06:06:27;44.87;;;32.00;;
68050;SDS011;54839;51.364;7.246;2024-03-06T06:08:53;49.00;;;29.53;;
68050;SDS011;54839;51.364;7.246;2024-03-06T06:11:19;47.00;;;28.40;;
68050;SDS011;54839;51.364;7.246;2024-03-06T06:13:45;50.30;;;31.40;;
68050;SDS011;54839;51.364;7.246;2024-03-06T06:16:10;41.30;;;27.50;;
68050;SDS011;54839;51.364;7.246;2024-03-06T06:18:37;47.77;;;30.10;;
68050;SDS011;54839;51.364;7.246;2024-03-06T06:21:05;43.27;;;28.17;;
68050;SDS011;54839;51.364;7.246;2024-03-06T06:23:33;54.30;;;30.53;;
68050;SDS011;54839;51.364;7.246;2024-03-06T06:26:02;44.83;;;29.80;;
68050;SDS011;54839;51.364;7.246;2024-03-06T06:28:27;49.33;;;30.73;;
68050;SDS011;54839;51.364;7.246;2024-03-06T06:30:53;58.03;;;32.33;;
68050;SDS011;54839;51.364;7.246;2024-03-06T06:33:19;56.87;;;31.60;;
68050;SDS011;54839;51.364;7.246;2024-03-06T06:35:45;60.07;;;31.80;;
68050;SDS011;54839;51.364;7.246;2024-03-06T06:38:11;50.93;;;30.00;;
68050;SDS011;54839;51.364;7.246;2024-03-06T06:40:37;70.20;;;35.67;;
68050;SDS011;54839;51.364;7.246;2024-03-06T06:43:03;71.50;;;34.40;;
68050;SDS011;54839;51.364;7.246;2024-03-06T06:45:28;62.97;;;34.63;;
68050;SDS011;54839;51.364;7.246;2024-03-06T06:47:54;76.50;;;39.50;;
68050;SDS011;54839;51.364;7.246;2024-03-06T06:50:20;105.20;;;39.07;;
68050;SDS011;54839;51.364;7.246;2024-03-06T06:52:52;116.53;;;40.40;;
68050;SDS011;54839;51.364;7.246;2024-03-06T06:55:18;101.67;;;38.70;;
68050;SDS011;54839;51.364;7.246;2024-03-06T06:57:45;90.87;;;31.73;;
68050;SDS011;54839;51.364;7.246;2024-03-06T07:00:11;78.20;;;35.07;;
68050;SDS011;54839;51.364;7.246;2024-03-06T07:02:37;81.57;;;39.70;;
68050;SDS011;54839;51.364;7.246;2024-03-06T07:05:06;52.77;;;30.07;;
68050;SDS011;54839;51.364;7.246;2024-03-06T07:07:34;64.83;;;31.13;;
68050;SDS011;54839;51.364;7.246;2024-03-06T07:10:00;60.37;;;33.17;;
68050;SDS011;54839;51.364;7.246;2024-03-06T07:12:27;56.30;;;33.60;;
68050;SDS011;54839;51.364;7.246;2024-03-06T07:14:53;54.30;;;33.63;;
68050;SDS011;54839;51.364;7.246;2024-03-06T07:17:18;55.80;;;32.13;;
68050;SDS011;54839;51.364;7.246;2024-03-06T07:19:44;54.77;;;34.07;;
68050;SDS011;54839;51.364;7.246;2024-03-06T07:22:10;41.93;;;29.70;;
68050;SDS011;54839;51.364;7.246;2024-03-06T07:24:35;47.97;;;32.37;;
68050;SDS011;54839;51.364;7.246;2024-03-06T07:27:01;44.77;;;28.27;;
68050;SDS011;54839;51.364;7.246;2024-03-06T07:29:28;37.03;;;26.00;;
68050;SDS011;54839;51.364;7.246;2024-03-06T07:31:53;35.77;;;26.93;;
68050;SDS011;54839;51.364;7.246;2024-03-06T07:34:19;41.37;;;28.30;;
68050;SDS011;54839;51.364;7.246;2024-03-06T07:36:48;33.87;;;24.77;;
68050;SDS011;54839;51.364;7.246;2024-03-06T07:39:18;33.03;;;23.60;;
68050;SDS011;54839;51.364;7.246;2024-03-06T07:41:45;34.60;;;25.60;;
68050;SDS011;54839;51.364;7.246;2024-03-06T07:44:11;34.77;;;23.17;;
68050;SDS011;54839;51.364;7.246;2024-03-06T07:46:36;31.40;;;25.80;;
68050;SDS011;54839;51.364;7.246;2024-03-06T07:49:02;28.57;;;22.10;;
68050;SDS011;54839;51.364;7.246;2024-03-06T07:51:31;33.60;;;26.60;;
68050;SDS011;54839;51.364;7.246;2024-03-06T07:53:57;27.63;;;21.37;;
68050;SDS011;54839;51.364;7.246;2024-03-06T07:56:24;32.10;;;23.60;;
68050;SDS011;54839;51.364;7.246;2024-03-06T07:58:50;31.00;;;23.30;;
68050;SDS011;54839;51.364;7.246;2024-03-06T08:01:17;29.37;;;21.60;;
68050;SDS011;54839;51.364;7.246;2024-03-06T08:03:43;31.27;;;23.10;;
68050;SDS011;54839;51.364;7.246;2024-03-06T08:06:09;31.50;;;22.33;;
68050;SDS011;54839;51.364;7.246;2024-03-06T08:08:39;32.57;;;23.30;;
68050;SDS011;54839;51.364;7.246;2024-03-06T08:11:05;35.30;;;27.63;;
68050;SDS011;54839;51.364;7.246;2024-03-06T08:13:31;40.30;;;26.10;;
68050;SDS011;54839;51.364;7.246;2024-03-06T08:15:56;37.77;;;27.17;;
68050;SDS011;54839;51.364;7.246;2024-03-06T08:18:22;33.30;;;24.20;;
68050;SDS011;54839;51.364;7.246;2024-03-06T08:20:48;34.07;;;26.00;;
68050;SDS011;54839;51.364;7.246;2024-03-06T08:23:13;41.23;;;27.73;;
68050;SDS011;54839;51.364;7.246;2024-03-06T08:25:39;33.50;;;23.50;;
68050;SDS011;54839;51.364;7.246;2024-03-06T08:28:04;37.77;;;25.97;;
68050;SDS011;54839;51.364;7.246;2024-03-06T08:30:30;37.83;;;27.80;;
68050;SDS011;54839;51.364;7.246;2024-03-06T08:32:57;33.80;;;26.00;;
68050;SDS011;54839;51.364;7.246;2024-03-06T08:35:22;44.93;;;27.50;;
68050;SDS011;54839;51.364;7.246;2024-03-06T08:37:49;39.83;;;28.57;;
68050;SDS011;54839;51.364;7.246;2024-03-06T08:40:15;41.50;;;28.43;;
68050;SDS011;54839;51.364;7.246;2024-03-06T08:42:45;39.70;;;25.43;;
68050;SDS011;54839;51.364;7.246;2024-03-06T08:45:14;42.23;;;26.57;;
68050;SDS011;54839;51.364;7.246;2024-03-06T08:47:40;41.60;;;26.37;;
68050;SDS011;54839;51.364;7.246;2024-03-06T08:50:06;35.90;;;25.10;;
68050;SDS011;54839;51.364;7.246;2024-03-06T08:52:33;39.00;;;25.93;;
68050;SDS011;54839;51.364;7.246;2024-03-06T08:55:00;34.43;;;24.80;;
68050;SDS011;54839;51.364;7.246;2024-03-06T08:57:26;35.30;;;25.00;;
68050;SDS011;54839;51.364;7.246;2024-03-06T08:59:53;39.43;;;25.30;;
68050;SDS011;54839;51.364;7.246;2024-03-06T09:02:19;34.27;;;24.97;;
68050;SDS011;54839;51.364;7.246;2024-03-06T09:04:45;37.50;;;27.70;;
68050;SDS011;54839;51.364;7.246;2024-03-06T09:07:11;36.67;;;27.47;;
68050;SDS011;54839;51.364;7.246;2024-03-06T09:09:38;37.33;;;25.23;;
68050;SDS011;54839;51.364;7.246;2024-03-06T09:12:07;29.50;;;22.73;;
68050;SDS011;54839;51.364;7.246;2024-03-06T09:14:37;31.63;;;22.60;;
68050;SDS011;54839;51.364;7.246;2024-03-06T09:17:03;33.97;;;26.00;;
68050;SDS011;54839;51.364;7.246;2024-03-06T09:19:30;32.40;;;22.77;;
68050;SDS011;54839;51.364;7.246;2024-03-06T09:21:56;27.30;;;21.90;;
68050;SDS011;54839;51.364;7.246;2024-03-06T09:24:22;30.33;;;22.57;;
68050;SDS011;54839;51.364;7.246;2024-03-06T09:26:48;27.67;;;22.17;;
68050;SDS011;54839;51.364;7.246;2024-03-06T09:29:15;30.20;;;23.83;;
68050;SDS011;54839;51.364;7.246;2024-03-06T09:31:41;30.80;;;22.70;;
68050;SDS011;54839;51.364;7.246;2024-03-06T09:34:07;30.80;;;21.07;;
68050;SDS011;54839;51.364;7.246;2024-03-06T09:36:32;23.20;;;19.87;;
68050;SDS011;54839;51.364;7.246;2024-03-06T09:38:58;31.20;;;21.80;;
68050;SDS011;54839;51.364;7.246;2024-03-06T09:41:24;29.60;;;20.17;;
68050;SDS011;54839;51.364;7.246;2024-03-06T09:43:50;31.10;;;22.67;;
68050;SDS011;54839;51.364;7.246;2024-03-06T09:46:17;27.93;;;19.20;;
68050;SDS011;54839;51.364;7.246;2024-03-06T09:48:46;26.63;;;21.07;;
68050;SDS011;54839;51.364;7.246;2024-03-06T09:51:13;27.57;;;20.50;;
68050;SDS011;54839;51.364;7.246;2024-03-06T09:53:39;24.47;;;19.93;;
68050;SDS011;54839;51.364;7.246;2024-03-06T09:56:07;41.30;;;21.73;;
68050;SDS011;54839;51.364;7.246;2024-03-06T09:58:33;23.90;;;19.80;;
68050;SDS011;54839;51.364;7.246;2024-03-06T10:01:00;27.70;;;21.83;;
68050;SDS011;54839;51.364;7.246;2024-03-06T10:03:28;24.20;;;19.57;;
68050;SDS011;54839;51.364;7.246;2024-03-06T10:05:54;22.87;;;18.07;;
68050;SDS011;54839;51.364;7.246;2024-03-06T10:08:21;22.97;;;19.03;;
68050;SDS011;54839;51.364;7.246;2024-03-06T10:10:47;23.27;;;17.57;;
68050;SDS011;54839;51.364;7.246;2024-03-06T10:13:16;19.67;;;17.57;;
68050;SDS011;54839;51.364;7.246;2024-03-06T10:15:42;18.23;;;14.57;;
68050;SDS011;54839;51.364;7.246;2024-03-06T10:18:20;18.93;;;15.60;;
68050;SDS011;54839;51.364;7.246;2024-03-06T10:20:45;20.83;;;17.60;;
68050;SDS011;54839;51.364;7.246;2024-03-06T10:23:12;21.93;;;17.30;;
68050;SDS011;54839;51.364;7.246;2024-03-06T10:25:37;22.00;;;16.87;;
68050;SDS011;54839;51.364;7.246;2024-03-06T10:28:10;36.53;;;18.00;;
68050;SDS011;54839;51.364;7.246;2024-03-06T10:30:37;19.97;;;16.17;;
68050;SDS011;54839;51.364;7.246;2024-03-06T10:33:07;20.10;;;16.23;;
68050;SDS011;54839;51.364;7.246;2024-03-06T10:35:36;18.43;;;15.30;;
68050;SDS011;54839;51.364;7.246;2024-03-06T10:38:05;21.10;;;17.13;;
68050;SDS011;54839;51.364;7.246;2024-03-06T10:40:32;23.90;;;18.53;;
68050;SDS011;54839;51.364;7.246;2024-03-06T10:43:08;21.97;;;17.20;;
68050;SDS011;54839;51.364;7.246;2024-03-06T10:45:45;21.40;;;18.23;;
68050;SDS011;54839;51.364;7.246;2024-03-06T10:48:16;25.50;;;16.80;;
68050;SDS011;54839;51.364;7.246;2024-03-06T10:50:43;17.63;;;15.73;;
68050;SDS011;54839;51.364;7.246;2024-03-06T10:53:11;17.33;;;15.50;;
68050;SDS011;54839;51.364;7.246;2024-03-06T10:55:40;22.07;;;16.17;;
68050;SDS011;54839;51.364;7.246;2024-03-06T10:58:09;21.60;;;17.07;;
68050;SDS011;54839;51.364;7.246;2024-03-06T11:00:36;20.57;;;16.17;;
68050;SDS011;54839;51.364;7.246;2024-03-06T11:03:07;18.27;;;16.30;;
68050;SDS011;54839;51.364;7.246;2024-03-06T11:05:37;18.87;;;14.90;;
68050;SDS011;54839;51.364;7.246;2024-03-06T11:08:06;18.43;;;14.97;;
68050;SDS011;54839;51.364;7.246;2024-03-06T11:10:33;18.00;;;15.50;;
68050;SDS011;54839;51.364;7.246;2024-03-06T11:13:01;19.40;;;13.77;;
68050;SDS011;54839;51.364;7.246;2024-03-06T11:15:28;17.13;;;14.90;;
68050;SDS011;54839;51.364;7.246;2024-03-06T11:17:53;18.93;;;15.67;;
68050;SDS011;54839;51.364;7.246;2024-03-06T11:20:20;17.13;;;15.20;;
68050;SDS011;54839;51.364;7.246;2024-03-06T11:28:22;18.93;;;15.00;;
68050;SDS011;54839;51.364;7.246;2024-03-06T11:30:55;19.40;;;16.00;;
68050;SDS011;54839;51.364;7.246;2024-03-06T11:33:23;15.10;;;13.50;;
68050;SDS011;54839;51.364;7.246;2024-03-06T11:41:26;20.13;;;15.60;;
68050;SDS011;54839;51.364;7.246;2024-03-06T11:43:53;18.93;;;14.73;;
68050;SDS011;54839;51.364;7.246;2024-03-06T11:46:20;18.80;;;15.20;;
68050;SDS011;54839;51.364;7.246;2024-03-06T11:48:54;16.90;;;14.20;;
68050;SDS011;54839;51.364;7.246;2024-03-06T11:51:21;13.57;;;12.13;;
68050;SDS011;54839;51.364;7.246;2024-03-06T11:53:49;16.00;;;12.20;;
68050;SDS011;54839;51.364;7.246;2024-03-06T11:56:16;16.03;;;12.80;;
68050;SDS011;54839;51.364;7.246;2024-03-06T11:58:43;13.67;;;11.50;;
68050;SDS011;54839;51.364;7.246;2024-03-06T12:01:08;15.17;;;11.47;;
68050;SDS011;54839;51.364;7.246;2024-03-06T12:03:34;16.13;;;12.87;;
68050;SDS011;54839;51.364;7.246;2024-03-06T12:06:00;14.47;;;12.23;;
68050;SDS011;54839;51.364;7.246;2024-03-06T12:08:25;13.40;;;12.00;;
68050;SDS011;54839;51.364;7.246;2024-03-06T12:10:51;15.80;;;12.60;;
68050;SDS011;54839;51.364;7.246;2024-03-06T12:13:20;16.30;;;13.33;;
68050;SDS011;54839;51.364;7.246;2024-03-06T12:15:46;16.10;;;11.60;;
68050;SDS011;54839;51.364;7.246;2024-03-06T12:18:12;12.97;;;10.70;;
68050;SDS011;54839;51.364;7.246;2024-03-06T12:20:41;12.90;;;10.13;;
68050;SDS011;54839;51.364;7.246;2024-03-06T12:23:10;13.93;;;12.27;;
68050;SDS011;54839;51.364;7.246;2024-03-06T12:25:46;12.80;;;10.33;;
68050;SDS011;54839;51.364;7.246;2024-03-06T12:28:11;25.63;;;10.00;;
68050;SDS011;54839;51.364;7.246;2024-03-06T12:30:41;10.47;;;9.17;;
68050;SDS011;54839;51.364;7.246;2024-03-06T12:33:07;10.90;;;9.40;;
68050;SDS011;54839;51.364;7.246;2024-03-06T12:35:33;12.63;;;9.20;;
68050;SDS011;54839;51.364;7.246;2024-03-06T12:37:59;11.03;;;9.87;;
68050;SDS011;54839;51.364;7.246;2024-03-06T12:40:24;16.87;;;15.07;;
68050;SDS011;54839;51.364;7.246;2024-03-06T12:42:50;18.37;;;16.47;;
68050;SDS011;54839;51.364;7.246;2024-03-06T12:45:18;19.90;;;16.80;;
68050;SDS011;54839;51.364;7.246;2024-03-06T12:47:44;18.53;;;15.30;;
68050;SDS011;54839;51.364;7.246;2024-03-06T12:50:13;15.90;;;14.30;;
68050;SDS011;54839;51.364;7.246;2024-03-06T12:52:39;17.77;;;15.50;;
68050;SDS011;54839;51.364;7.246;2024-03-06T12:55:05;16.63;;;13.00;;
68050;SDS011;54839;51.364;7.246;2024-03-06T12:57:31;18.87;;;17.00;;
68050;SDS011;54839;51.364;7.246;2024-03-06T12:59:57;21.53;;;17.60;;
68050;SDS011;54839;51.364;7.246;2024-03-06T13:02:23;21.90;;;19.60;;
68050;SDS011;54839;51.364;7.246;2024-03-06T13:04:49;25.77;;;23.00;;
68050;SDS011;54839;51.364;7.246;2024-03-06T13:07:14;22.90;;;20.20;;
68050;SDS011;54839;51.364;7.246;2024-03-06T13:09:40;23.13;;;20.80;;
68050;SDS011;54839;51.364;7.246;2024-03-06T13:12:05;22.73;;;19.93;;
68050;SDS011;54839;51.364;7.246;2024-03-06T13:14:31;23.00;;;20.70;;
68050;SDS011;54839;51.364;7.246;2024-03-06T13:16:57;22.90;;;19.93;;
68050;SDS011;54839;51.364;7.246;2024-03-06T13:19:24;22.00;;;19.70;;
68050;SDS011;54839;51.364;7.246;2024-03-06T13:21:49;23.00;;;19.33;;
68050;SDS011;54839;51.364;7.246;2024-03-06T13:24:15;22.80;;;19.43;;
68050;SDS011;54839;51.364;7.246;2024-03-06T13:26:40;24.43;;;18.00;;
68050;SDS011;54839;51.364;7.246;2024-03-06T13:29:06;20.23;;;18.17;;
68050;SDS011;54839;51.364;7.246;2024-03-06T13:31:32;22.43;;;19.90;;
68050;SDS011;54839;51.364;7.246;2024-03-06T13:34:02;21.73;;;18.70;;
68050;SDS011;54839;51.364;7.246;2024-03-06T13:36:28;26.93;;;22.00;;
68050;SDS011;54839;51.364;7.246;2024-03-06T13:38:54;32.53;;;20.07;;
68050;SDS011;54839;51.364;7.246;2024-03-06T13:41:20;24.73;;;21.50;;
68050;SDS011;54839;51.364;7.246;2024-03-06T13:43:46;22.93;;;20.10;;
68050;SDS011;54839;51.364;7.246;2024-03-06T13:46:12;24.83;;;20.67;;
68050;SDS011;54839;51.364;7.246;2024-03-06T13:48:37;21.13;;;19.10;;
68050;SDS011;54839;51.364;7.246;2024-03-06T13:51:03;26.00;;;21.43;;
68050;SDS011;54839;51.364;7.246;2024-03-06T13:53:30;25.97;;;20.53;;
68050;SDS011;54839;51.364;7.246;2024-03-06T13:55:55;21.10;;;18.80;;
68050;SDS011;54839;51.364;7.246;2024-03-06T13:58:21;29.43;;;24.80;;
68050;SDS011;54839;51.364;7.246;2024-03-06T14:00:47;24.27;;;19.93;;
68050;SDS011;54839;51.364;7.246;2024-03-06T14:03:13;20.57;;;18.33;;
68050;SDS011;54839;51.364;7.246;2024-03-06T14:05:38;23.00;;;20.60;;
68050;SDS011;54839;51.364;7.246;2024-03-06T14:08:04;31.10;;;20.83;;
68050;SDS011;54839;51.364;7.246;2024-03-06T14:10:30;22.00;;;19.00;;
68050;SDS011;54839;51.364;7.246;2024-03-06T14:13:01;25.07;;;20.23;;
68050;SDS011;54839;51.364;7.246;2024-03-06T14:15:27;24.87;;;21.43;;
68050;SDS011;54839;51.364;7.246;2024-03-06T14:17:53;21.30;;;19.20;;
68050;SDS011;54839;51.364;7.246;2024-03-06T14:20:19;22.53;;;20.10;;
68050;SDS011;54839;51.364;7.246;2024-03-06T14:22:45;20.97;;;18.87;;
68050;SDS011;54839;51.364;7.246;2024-03-06T14:25:11;22.70;;;20.37;;
68050;SDS011;54839;51.364;7.246;2024-03-06T14:27:37;22.07;;;19.70;;